createdAt,value
2019-02-28T00:05:06.825Z,40.68
2019-02-28T00:10:23.127Z,40.65
2019-02-28T00:12:51.271Z,40.65
2019-02-28T00:15:19.427Z,40.63
2019-02-28T00:20:20.877Z,40.16
2019-02-28T00:22:49.442Z,40.50
2019-02-28T00:25:18.877Z,40.04
2019-02-28T00:27:47.006Z,40.25
2019-02-28T00:30:15.175Z,40.52
2019-02-28T00:32:43.342Z,40.51
2019-02-28T00:35:13.355Z,40.52
2019-02-28T00:37:41.260Z,40.69
2019-02-28T00:40:09.444Z,40.69
2019-02-28T00:42:37.567Z,40.77
2019-02-28T00:45:05.740Z,40.41
2019-02-28T00:50:07.870Z,40.77
2019-02-28T00:52:36.118Z,40.21
2019-02-28T00:55:04.296Z,40.61
2019-02-28T00:57:32.476Z,40.72
2019-02-28T01:00:04.949Z,40.36
2019-02-28T01:02:30.436Z,40.71
2019-02-28T01:05:01.403Z,40.35
2019-02-28T01:07:28.406Z,40.60
2019-02-28T01:09:56.592Z,40.62
2019-02-28T01:12:24.757Z,40.48
2019-02-28T01:14:52.878Z,40.41
2019-02-28T01:17:21.082Z,40.74
2019-02-28T01:19:49.220Z,40.62
2019-02-28T01:22:17.401Z,40.58
2019-02-28T01:24:45.524Z,41.09
2019-02-28T01:27:13.676Z,40.77
2019-02-28T01:29:41.812Z,40.30
2019-02-28T01:32:09.975Z,40.76
2019-02-28T01:34:38.223Z,40.70
2019-02-28T01:37:06.347Z,40.49
2019-02-28T01:39:34.484Z,40.45
2019-02-28T01:42:02.679Z,40.76
2019-02-28T01:44:35.598Z,40.59
2019-02-28T01:52:10.190Z,40.22
2019-02-28T01:54:37.748Z,40.75
2019-02-28T01:57:08.970Z,40.27
2019-02-28T01:59:35.701Z,40.53
2019-02-28T02:02:06.737Z,40.39
2019-02-28T02:04:33.628Z,40.42
2019-02-28T02:07:01.781Z,40.17
2019-02-28T02:09:29.952Z,39.96
2019-02-28T02:11:59.077Z,40.77
2019-02-28T02:14:27.921Z,40.62
2019-02-28T02:16:58.274Z,40.52
2019-02-28T02:19:25.913Z,40.82
2019-02-28T02:21:54.044Z,40.96
2019-02-28T02:24:24.307Z,40.11
2019-02-28T02:26:52.014Z,40.23
2019-02-28T02:29:20.152Z,40.05
2019-02-28T02:32:07.372Z,40.04
2019-02-28T02:34:35.540Z,40.77
2019-02-28T02:37:03.682Z,40.48
2019-02-28T02:39:31.817Z,40.76
2019-02-28T02:41:59.979Z,40.79
2019-02-28T02:44:31.752Z,40.48
2019-02-28T02:46:57.932Z,40.60
2019-02-28T02:49:26.094Z,40.51
2019-02-28T02:52:13.339Z,40.51
2019-02-28T02:54:41.493Z,40.38
2019-02-28T02:57:28.720Z,40.71
2019-02-28T02:59:56.934Z,40.68
2019-02-28T03:02:28.824Z,40.56
2019-02-28T03:04:58.498Z,40.40
2019-02-28T03:07:25.089Z,40.54
2019-02-28T03:09:53.268Z,40.64
2019-02-28T03:12:21.450Z,40.42
2019-02-28T03:14:50.011Z,40.39
2019-02-28T03:17:19.422Z,40.29
2019-02-28T03:19:47.574Z,40.32
2019-02-28T03:22:15.760Z,40.37
2019-02-28T03:24:50.707Z,40.41
2019-02-28T03:27:18.647Z,40.39
2019-02-28T03:29:44.722Z,40.58
2019-02-28T03:32:13.373Z,40.10
2019-02-28T03:34:55.286Z,40.33
2019-02-28T03:37:11.371Z,40.69
2019-02-28T03:39:39.549Z,40.50
2019-02-28T03:42:07.712Z,40.56
2019-02-28T03:44:35.917Z,40.53
2019-02-28T03:47:04.065Z,40.32
2019-02-28T03:49:32.255Z,40.26
2019-02-28T03:52:05.396Z,40.55
2019-02-28T03:54:30.265Z,40.15
2019-02-28T03:56:58.366Z,40.20
2019-02-28T03:59:26.526Z,40.65
2019-02-28T04:01:54.686Z,40.05
2019-02-28T04:04:22.820Z,40.48
2019-02-28T04:06:50.964Z,40.63
2019-02-28T04:09:19.105Z,40.45
2019-02-28T04:11:47.250Z,40.35
2019-02-28T04:14:15.407Z,39.99
2019-02-28T04:17:02.468Z,40.32
2019-02-28T04:19:30.653Z,40.30
2019-02-28T04:21:58.816Z,40.60
2019-02-28T04:24:27.002Z,40.25
2019-02-28T04:26:55.260Z,40.41
2019-02-28T04:29:30.023Z,40.77
2019-02-28T04:31:53.262Z,40.74
2019-02-28T04:34:21.394Z,40.53
2019-02-28T04:36:49.555Z,40.21
2019-02-28T04:39:17.721Z,40.28
2019-02-28T04:41:45.860Z,40.22
2019-02-28T04:44:15.385Z,40.72
2019-02-28T04:46:43.829Z,40.32
2019-02-28T04:49:12.035Z,40.65
2019-02-28T04:51:41.075Z,40.80
2019-02-28T04:54:10.077Z,40.55
2019-02-28T04:56:38.251Z,40.58
2019-02-28T04:59:06.390Z,40.75
2019-02-28T05:01:34.540Z,40.45
2019-02-28T05:04:03.064Z,40.39
2019-02-28T05:06:32.507Z,40.71
2019-02-28T05:09:00.872Z,40.62
2019-02-28T05:11:30.736Z,40.77
2019-02-28T05:13:59.262Z,40.45
2019-02-28T05:16:27.736Z,40.23
2019-02-28T05:18:58.293Z,40.46
2019-02-28T05:21:26.175Z,40.62
2019-02-28T05:23:54.424Z,40.94
2019-02-28T05:26:23.504Z,40.67
2019-02-28T05:28:52.816Z,40.46
2019-02-28T05:31:21.077Z,40.70
2019-02-28T05:33:49.320Z,40.70
2019-02-28T05:36:17.549Z,40.19
2019-02-28T05:39:04.652Z,40.58
2019-02-28T05:41:32.850Z,40.67
2019-02-28T05:44:03.335Z,40.75
2019-02-28T05:46:30.953Z,40.42
2019-02-28T05:49:18.055Z,40.62
2019-02-28T05:51:46.350Z,40.24
2019-02-28T05:54:33.536Z,40.65
2019-02-28T05:57:04.605Z,40.52
2019-02-28T05:59:31.669Z,40.43
2019-02-28T06:01:59.969Z,40.34
2019-02-28T06:04:28.282Z,40.46
2019-02-28T06:09:45.588Z,40.65
2019-02-28T06:12:13.802Z,40.22
2019-02-28T06:17:29.254Z,40.59
2019-02-28T06:19:57.446Z,40.62
2019-02-28T06:22:44.720Z,40.68
2019-02-28T06:25:12.887Z,40.57
2019-02-28T06:27:42.131Z,40.50
2019-02-28T06:30:11.227Z,40.57
2019-02-28T06:32:39.412Z,40.57
2019-02-28T06:35:07.664Z,40.52
2019-02-28T06:37:38.297Z,40.82
2019-02-28T06:40:06.175Z,40.99
2019-02-28T06:42:34.332Z,40.62
2019-02-28T06:45:03.660Z,40.87
2019-02-28T06:47:31.948Z,40.18
2019-02-28T06:50:00.244Z,40.50
2019-02-28T06:52:28.380Z,40.47
2019-02-28T06:54:56.549Z,40.86
2019-02-28T06:57:26.770Z,40.58
2019-02-28T06:59:54.570Z,40.31
2019-02-28T07:02:22.766Z,40.36
2019-02-28T07:04:50.975Z,40.37
2019-02-28T07:07:19.137Z,40.67
2019-02-28T07:09:47.341Z,40.55
2019-02-28T07:12:15.685Z,40.87
2019-02-28T07:14:44.474Z,40.61
2019-02-28T07:17:13.734Z,40.51
2019-02-28T07:19:41.901Z,40.55
2019-02-28T07:22:10.028Z,40.51
2019-02-28T07:24:38.305Z,40.89
2019-02-28T07:27:06.457Z,40.43
2019-02-28T07:29:34.636Z,40.76
2019-02-28T07:32:02.797Z,40.82
2019-02-28T07:34:31.032Z,40.72
2019-02-28T07:36:59.205Z,40.60
2019-02-28T07:39:27.402Z,40.51
2019-02-28T07:41:58.904Z,40.14
2019-02-28T07:44:25.488Z,39.86
2019-02-28T07:46:53.631Z,40.42
2019-02-28T07:49:21.794Z,40.72
2019-02-28T07:51:50.028Z,40.54
2019-02-28T07:54:20.375Z,40.13
2019-02-28T07:56:48.144Z,40.35
2019-02-28T07:59:18.487Z,40.86
2019-02-28T08:01:46.676Z,40.42
2019-02-28T08:04:18.131Z,40.96
2019-02-28T08:06:44.741Z,41.09
2019-02-28T08:09:20.654Z,40.98
2019-02-28T08:11:51.632Z,41.16
2019-02-28T08:14:18.651Z,40.77
2019-02-28T08:16:46.838Z,40.81
2019-02-28T08:19:15.073Z,40.94
2019-02-28T08:21:46.979Z,41.10
2019-02-28T08:24:13.071Z,40.82
2019-02-28T08:26:41.230Z,40.85
2019-02-28T08:29:11.680Z,40.99
2019-02-28T08:31:39.218Z,40.51
2019-02-28T08:34:07.430Z,41.03
2019-02-28T08:36:35.614Z,40.80
2019-02-28T08:39:06.093Z,40.80
2019-02-28T08:41:35.746Z,40.74
2019-02-28T08:44:03.942Z,40.70
2019-02-28T08:46:32.110Z,40.50
2019-02-28T08:49:00.322Z,40.70
2019-02-28T08:51:31.025Z,40.67
2019-02-28T08:53:58.406Z,40.62
2019-02-28T08:56:26.628Z,40.54
2019-02-28T08:58:54.789Z,40.70
2019-02-28T09:01:22.988Z,40.63
2019-02-28T09:03:51.183Z,40.26
2019-02-28T09:06:19.351Z,40.19
2019-02-28T09:08:47.563Z,40.20
2019-02-28T09:11:20.587Z,40.08
2019-02-28T09:13:45.602Z,40.18
2019-02-28T09:16:13.785Z,40.24
2019-02-28T09:18:41.964Z,39.98
2019-02-28T09:21:10.159Z,40.03
2019-02-28T09:23:38.497Z,38.65
2019-02-28T09:26:06.696Z,40.21
2019-02-28T09:28:34.832Z,40.24
2019-02-28T09:31:04.923Z,40.20
2019-02-28T09:33:32.743Z,40.37
2019-02-28T09:36:00.889Z,40.33
2019-02-28T09:38:29.016Z,40.22
2019-02-28T09:40:57.179Z,40.24
2019-02-28T09:43:25.320Z,40.31
2019-02-28T09:45:53.462Z,40.40
2019-02-28T09:48:21.641Z,40.40
2019-02-28T09:50:49.782Z,38.88
2019-02-28T09:53:17.903Z,40.57
2019-02-28T09:55:46.032Z,40.08
2019-02-28T09:58:14.175Z,40.34
2019-02-28T10:00:43.351Z,40.50
2019-02-28T10:03:12.259Z,40.32
2019-02-28T10:05:42.537Z,40.47
2019-02-28T10:08:10.202Z,40.52
2019-02-28T10:10:38.389Z,40.23
2019-02-28T10:13:06.482Z,40.30
2019-02-28T10:15:34.637Z,40.31
2019-02-28T10:18:04.425Z,40.03
2019-02-28T10:20:32.822Z,39.66
2019-02-28T10:23:00.989Z,40.27
2019-02-28T10:25:29.284Z,39.50
2019-02-28T10:28:01.180Z,39.66
2019-02-28T10:30:31.832Z,40.52
2019-02-28T10:32:57.383Z,40.47
2019-02-28T10:35:25.517Z,40.21
2019-02-28T10:37:57.189Z,38.31
2019-02-28T10:40:23.874Z,40.51
2019-02-28T10:42:52.107Z,40.37
2019-02-28T10:45:20.280Z,40.57
2019-02-28T10:47:48.414Z,40.83
2019-02-28T10:50:17.493Z,39.49
2019-02-28T10:52:45.771Z,39.63
2019-02-28T10:55:14.049Z,40.25
2019-02-28T10:57:42.182Z,40.29
2019-02-28T11:00:20.902Z,39.90
2019-02-28T11:02:50.430Z,40.41
2019-02-28T11:05:19.850Z,38.08
2019-02-28T11:07:48.049Z,40.49
2019-02-28T11:10:16.218Z,40.54
2019-02-28T11:12:44.372Z,40.39
2019-02-28T11:15:13.856Z,40.18
2019-02-28T11:17:42.318Z,40.01
2019-02-28T11:20:21.614Z,40.54
2019-02-28T11:22:40.971Z,40.47
2019-02-28T11:25:09.869Z,40.64
2019-02-28T11:27:38.409Z,40.71
2019-02-28T11:30:07.432Z,40.61
2019-02-28T11:32:36.576Z,40.55
2019-02-28T11:35:05.003Z,40.58
2019-02-28T11:37:33.160Z,40.63
2019-02-28T11:40:01.414Z,40.58
2019-02-28T11:42:31.176Z,40.67
2019-02-28T11:44:59.435Z,40.63
2019-02-28T11:47:27.572Z,40.38
2019-02-28T11:49:55.705Z,40.49
2019-02-28T11:52:24.503Z,40.37
2019-02-28T11:54:53.657Z,40.44
2019-02-28T11:57:21.788Z,40.57
2019-02-28T11:59:50.046Z,40.63
2019-02-28T12:02:20.188Z,40.67
2019-02-28T12:04:47.959Z,40.43
2019-02-28T12:07:16.094Z,40.38
2019-02-28T12:09:44.235Z,40.66
2019-02-28T12:12:12.375Z,40.57
2019-02-28T12:14:40.540Z,40.54
2019-02-28T12:17:08.664Z,40.52
2019-02-28T12:19:36.801Z,40.45
2019-02-28T12:22:04.941Z,40.46
2019-02-28T12:24:33.228Z,40.60
2019-02-28T12:27:01.416Z,40.59
2019-02-28T12:29:29.559Z,40.49
2019-02-28T12:31:57.710Z,40.36
2019-02-28T12:34:28.941Z,40.29
2019-02-28T12:36:55.786Z,40.41
2019-02-28T12:39:23.908Z,40.54
2019-02-28T12:41:52.086Z,40.38
2019-02-28T12:44:20.312Z,40.57
2019-02-28T12:46:48.633Z,40.53
2019-02-28T12:49:21.748Z,40.46
2019-02-28T12:51:46.725Z,40.36
2019-02-28T12:54:14.891Z,40.37
2019-02-28T12:56:45.164Z,40.42
2019-02-28T12:59:13.087Z,40.39
2019-02-28T13:01:41.293Z,40.38
2019-02-28T13:04:09.488Z,40.28
2019-02-28T13:06:37.847Z,40.34
2019-02-28T13:09:06.676Z,40.39
2019-02-28T13:11:35.903Z,40.39
2019-02-28T13:14:06.476Z,39.54
2019-02-28T13:16:34.495Z,40.04
2019-02-28T13:19:02.807Z,40.01
2019-02-28T13:21:31.289Z,39.97
2019-02-28T13:23:59.639Z,39.91
2019-02-28T13:26:30.490Z,39.87
2019-02-28T13:28:58.165Z,40.05
2019-02-28T13:31:27.026Z,39.91
2019-02-28T13:33:55.349Z,39.75
2019-02-28T13:36:24.040Z,39.87
2019-02-28T13:38:54.794Z,39.76
2019-02-28T13:41:26.326Z,39.58
2019-02-28T13:43:54.762Z,39.72
2019-02-28T13:46:22.177Z,39.82
2019-02-28T13:48:50.651Z,39.81
2019-02-28T13:51:18.911Z,40.05
2019-02-28T13:53:47.153Z,40.00
2019-02-28T13:56:15.389Z,40.08
2019-02-28T13:58:43.538Z,40.13
2019-02-28T14:01:11.681Z,39.99
2019-02-28T14:03:42.357Z,39.89
2019-02-28T14:06:12.206Z,39.87
2019-02-28T14:08:42.040Z,39.93
2019-02-28T14:11:11.022Z,39.78
2019-02-28T14:13:39.292Z,39.89
2019-02-28T14:16:07.657Z,39.65
2019-02-28T14:18:36.073Z,39.72
2019-02-28T14:21:05.051Z,39.93
2019-02-28T14:23:33.213Z,40.05
2019-02-28T14:26:05.121Z,41.53
2019-02-28T14:28:35.557Z,43.03
2019-02-28T14:31:03.095Z,43.67
2019-02-28T14:33:31.328Z,43.61
2019-02-28T14:35:59.473Z,43.23
2019-02-28T14:38:29.604Z,43.05
2019-02-28T14:40:59.335Z,42.68
2019-02-28T14:43:27.656Z,42.68
2019-02-28T14:45:55.816Z,42.38
2019-02-28T14:48:24.009Z,42.43
2019-02-28T14:50:54.165Z,42.09
2019-02-28T14:53:22.063Z,42.01
2019-02-28T14:55:50.183Z,41.95
2019-02-28T14:58:21.292Z,41.85
2019-02-28T15:00:48.148Z,41.85
2019-02-28T15:03:16.322Z,41.64
2019-02-28T15:05:44.540Z,41.68
2019-02-28T15:08:15.433Z,41.84
2019-02-28T15:10:43.044Z,41.70
2019-02-28T15:13:11.217Z,41.64
2019-02-28T15:15:40.853Z,41.61
2019-02-28T15:18:11.013Z,41.50
2019-02-28T15:20:38.967Z,41.51
2019-02-28T15:23:07.165Z,41.37
2019-02-28T15:25:35.333Z,41.40
2019-02-28T15:28:03.467Z,41.23
2019-02-28T15:30:33.690Z,41.31
2019-02-28T15:33:02.065Z,41.02
2019-02-28T15:35:30.210Z,41.11
2019-02-28T15:37:58.355Z,41.36
2019-02-28T15:40:27.612Z,40.90
2019-02-28T15:42:55.739Z,41.15
2019-02-28T15:45:23.881Z,41.02
2019-02-28T15:47:58.919Z,40.90
2019-02-28T15:50:25.973Z,40.87
2019-02-28T15:52:54.122Z,40.92
2019-02-28T15:55:22.389Z,40.84
2019-02-28T15:57:50.516Z,40.85
2019-02-28T16:00:22.093Z,40.96
2019-02-28T16:02:49.746Z,40.90
2019-02-28T16:05:17.893Z,40.71
2019-02-28T16:07:46.032Z,40.80
2019-02-28T16:10:15.737Z,40.79
2019-02-28T16:12:46.539Z,40.62
2019-02-28T16:15:13.613Z,40.93
2019-02-28T16:17:41.783Z,40.83
2019-02-28T16:20:09.929Z,40.72
2019-02-28T16:22:38.064Z,40.92
2019-02-28T16:25:07.432Z,41.05
2019-02-28T16:27:35.576Z,40.98
2019-02-28T16:30:03.765Z,41.07
2019-02-28T16:32:31.898Z,40.93
2019-02-28T16:35:00.056Z,40.99
2019-02-28T16:37:28.201Z,40.97
2019-02-28T16:39:56.365Z,41.12
2019-02-28T16:42:24.487Z,41.17
2019-02-28T16:44:52.742Z,41.13
2019-02-28T16:47:21.460Z,41.19
2019-02-28T16:49:50.803Z,41.33
2019-02-28T16:52:18.942Z,41.22
2019-02-28T16:54:47.107Z,41.31
2019-02-28T16:57:15.253Z,41.25
2019-02-28T16:59:43.388Z,41.27
2019-02-28T17:02:11.554Z,41.24
2019-02-28T17:04:39.721Z,41.24
2019-02-28T17:07:09.576Z,41.18
2019-02-28T17:09:41.019Z,41.24
2019-02-28T17:12:29.370Z,41.19
2019-02-28T17:14:57.682Z,41.23
2019-02-28T17:17:50.854Z,41.11
2019-02-28T17:20:19.041Z,41.21
2019-02-28T17:22:47.143Z,41.05
2019-02-28T17:25:15.287Z,41.13
2019-02-28T17:28:05.615Z,41.18
2019-02-28T17:30:45.883Z,41.03
2019-02-28T17:33:14.149Z,41.17
2019-02-28T17:35:42.309Z,41.16
2019-02-28T17:38:10.475Z,41.12
2019-02-28T17:40:38.616Z,41.12
2019-02-28T17:43:06.757Z,41.06
2019-02-28T17:45:35.431Z,41.15
2019-02-28T17:48:21.821Z,41.09
2019-02-28T17:51:18.795Z,41.07
2019-02-28T17:54:07.587Z,41.14
2019-02-28T17:56:40.837Z,41.07
2019-02-28T17:59:42.043Z,41.04
2019-02-28T18:02:31.392Z,41.08
2019-02-28T18:05:14.038Z,41.08
2019-02-28T18:08:07.351Z,41.04
2019-02-28T18:10:55.802Z,41.09
2019-02-28T18:13:36.417Z,41.18
2019-02-28T18:16:11.313Z,40.96
2019-02-28T18:19:18.115Z,41.02
2019-02-28T18:21:59.881Z,41.05
2019-02-28T18:24:47.189Z,41.21
2019-02-28T18:27:19.364Z,41.07
2019-02-28T18:30:24.793Z,41.04
2019-02-28T18:32:52.925Z,41.01
2019-02-28T18:35:21.156Z,40.97
2019-02-28T18:37:49.289Z,41.01
2019-02-28T18:40:17.438Z,41.00
2019-02-28T18:42:45.586Z,40.88
2019-02-28T18:45:15.658Z,41.05
2019-02-28T18:47:43.533Z,40.89
2019-02-28T18:50:11.681Z,40.99
2019-02-28T18:52:39.812Z,40.82
2019-02-28T18:55:07.981Z,40.87
2019-02-28T18:57:36.116Z,40.85
2019-02-28T19:00:04.266Z,40.90
2019-02-28T19:02:32.698Z,40.86
2019-02-28T19:05:00.833Z,41.01
2019-02-28T19:07:28.988Z,40.94
2019-02-28T19:09:57.111Z,40.96
2019-02-28T19:12:25.259Z,40.77
2019-02-28T19:14:53.418Z,40.87
2019-02-28T19:17:21.564Z,40.91
2019-02-28T19:19:49.683Z,40.89
2019-02-28T19:22:17.845Z,40.94
2019-02-28T19:24:45.980Z,40.45
2019-02-28T19:27:14.134Z,40.86
2019-02-28T19:29:42.265Z,40.82
2019-02-28T19:32:10.415Z,40.79
2019-02-28T19:34:38.539Z,40.83
2019-02-28T19:37:06.681Z,40.78
2019-02-28T19:39:34.811Z,40.79
2019-02-28T19:42:02.953Z,40.81
2019-02-28T19:44:31.083Z,40.83
2019-02-28T19:46:59.217Z,40.69
2019-02-28T19:49:27.356Z,40.84
2019-02-28T19:51:55.489Z,40.86
2019-02-28T19:54:23.623Z,40.74
2019-02-28T19:56:51.933Z,40.71
2019-02-28T19:59:20.086Z,40.78
2019-02-28T20:01:48.212Z,40.70
2019-02-28T20:04:16.406Z,40.70
2019-02-28T20:06:44.537Z,40.57
2019-02-28T20:09:12.679Z,40.82
2019-02-28T20:11:40.834Z,40.74
2019-02-28T20:14:08.981Z,40.87
2019-02-28T20:16:37.121Z,40.69
2019-02-28T20:19:05.281Z,40.69
2019-02-28T20:21:33.418Z,40.76
2019-02-28T20:24:01.563Z,40.79
2019-02-28T20:26:29.719Z,40.66
2019-02-28T20:28:57.971Z,40.79
2019-02-28T20:31:26.415Z,40.79
2019-02-28T20:33:54.550Z,40.77
2019-02-28T20:36:22.692Z,40.79
2019-02-28T20:38:50.831Z,40.87
2019-02-28T20:41:18.970Z,39.06
2019-02-28T20:43:47.095Z,40.83
2019-02-28T20:46:15.253Z,40.87
2019-02-28T20:48:43.387Z,40.37
2019-02-28T20:51:11.545Z,40.77
2019-02-28T20:53:39.672Z,40.69
2019-02-28T20:56:07.812Z,40.82
2019-02-28T20:58:36.281Z,40.76
2019-02-28T21:01:04.666Z,40.72
2019-02-28T21:03:32.808Z,40.80
2019-02-28T21:06:00.953Z,40.78
2019-02-28T21:08:29.084Z,40.68
2019-02-28T21:10:57.222Z,40.72
2019-02-28T21:13:25.344Z,40.83
2019-02-28T21:15:53.498Z,40.68
2019-02-28T21:18:21.642Z,40.74
2019-02-28T21:20:49.800Z,40.70
2019-02-28T21:23:17.934Z,40.79
2019-02-28T21:25:46.085Z,40.83
2019-02-28T21:28:14.209Z,40.55
2019-02-28T21:30:42.340Z,40.68
2019-02-28T21:33:12.295Z,40.66
2019-02-28T21:35:40.442Z,40.69
2019-02-28T21:38:08.696Z,40.71
2019-02-28T21:40:36.825Z,40.68
2019-02-28T21:43:04.974Z,40.31
2019-02-28T21:45:33.672Z,40.69
2019-02-28T21:48:01.970Z,40.63
2019-02-28T21:50:30.129Z,40.63
2019-02-28T21:52:58.266Z,40.58
2019-02-28T21:55:26.433Z,40.73
2019-02-28T21:57:54.576Z,40.78
2019-02-28T22:00:23.185Z,40.29
2019-02-28T22:02:51.362Z,40.56
2019-02-28T22:05:19.500Z,40.68
2019-02-28T22:07:47.646Z,40.48
2019-02-28T22:10:15.809Z,40.19
2019-02-28T22:12:43.939Z,40.57
2019-02-28T22:15:13.157Z,40.61
2019-02-28T22:17:41.299Z,40.50
2019-02-28T22:20:10.156Z,40.62
2019-02-28T22:22:38.285Z,40.51
2019-02-28T22:25:06.612Z,40.63
2019-02-28T22:27:34.721Z,40.71
2019-02-28T22:30:11.449Z,40.63
2019-02-28T22:32:44.721Z,40.32
2019-02-28T22:35:19.370Z,40.22
2019-02-28T22:37:47.517Z,40.37
2019-02-28T22:40:15.693Z,40.21
2019-02-28T22:42:43.832Z,40.55
2019-02-28T22:45:11.973Z,40.63
2019-02-28T22:47:40.100Z,40.67
2019-02-28T22:50:08.385Z,40.37
2019-02-28T22:52:36.517Z,39.95
2019-02-28T22:55:04.992Z,40.12
2019-02-28T22:57:33.119Z,40.22
2019-02-28T23:00:01.263Z,40.12
2019-02-28T23:02:29.425Z,40.66
2019-02-28T23:04:57.712Z,40.12
2019-02-28T23:07:28.634Z,40.42
2019-02-28T23:09:56.821Z,40.45
2019-02-28T23:12:24.970Z,40.15
2019-02-28T23:14:53.109Z,40.38
2019-02-28T23:17:21.265Z,39.87
2019-02-28T23:19:49.413Z,40.15
2019-02-28T23:22:17.565Z,40.34
2019-02-28T23:24:45.724Z,40.42
2019-02-28T23:27:17.662Z,40.05
2019-02-28T23:29:48.710Z,40.35
2019-02-28T23:32:41.995Z,40.33
2019-02-28T23:35:15.466Z,40.62
2019-02-28T23:37:43.615Z,40.31
2019-02-28T23:40:11.741Z,40.43
2019-02-28T23:42:39.867Z,40.45
2019-02-28T23:45:08.056Z,39.97
2019-02-28T23:47:36.200Z,40.51
2019-02-28T23:50:04.714Z,40.34
2019-02-28T23:52:32.872Z,39.37
2019-02-28T23:55:01.009Z,40.54
2019-02-28T23:57:29.147Z,40.41
2019-02-28T23:59:57.282Z,40.36
